American Glory — WDA8860 — position and weather

sailwx.info

Track history (hours):
 
Tides and Currents Weather Stations Pressure Air Temp Water Temp Dewpoint Dewpoint Depression Visibility Wind Speed Wind Dir Waves Ship Positions

American Glory

Owner: AMERICAN CRUISE LINES INC, DELMAR, DE. More information available from US FCC via Universal Licensing System and Coast Guard Vessel Documentation Center.

Last reported at 2014-Oct-30 20:08 UTC. Time now 2014-Nov-01 04:48 UTC.
Position N 39°11' W 076°26'.

Length 54 m; draft 2.1 m.

Type: Passenger vessel. MMSI: 366858820.

Date/timePositionNaut miles runAvg speedWind from/ knotsBaromVisibWave heightAir tempDewpointWater temp
2014-Oct-30 20:08N 39°11' W 076°26'5 9.3
2014-Oct-30 19:33N 39°14' W 076°32'5 4.7
2014-Oct-30 18:33N 39°17' W 076°36'0 0.3
2014-Oct-30 17:33N 39°17' W 076°37'0 0.0
2014-Oct-30 16:33N 39°17' W 076°37'0 0.0
2014-Oct-30 15:33N 39°17' W 076°37'0 0.0
2014-Oct-30 14:33N 39°17' W 076°37'0 0.0
2014-Oct-30 13:27N 39°17' W 076°37'0 0.0
2014-Oct-30 12:33N 39°17' W 076°37'0 0.0
2014-Oct-30 11:33N 39°17' W 076°37'0 0.0
2014-Oct-30 10:33N 39°17' W 076°37'0 0.4
2014-Oct-30 09:33N 39°17' W 076°36'7 7.2
2014-Oct-30 08:33N 39°12' W 076°30'8 7.9
2014-Oct-30 07:33N 39°09' W 076°20'9 7.7
2014-Oct-30 06:26N 39°16' W 076°14'29 7.4
2014-Oct-30 02:33N 39°33' W 075°43'8 8.2
2014-Oct-30 01:33N 39°34' W 075°33'10 9.9
2014-Oct-30 00:32N 39°44' W 075°30'1 0.0
2014-Oct-28 19:17N 39°45' W 075°30'811.0
2014-Oct-28 18:33N 39°38' W 075°34'1010.2
2014-Oct-28 17:33N 39°28' W 075°34'1110.7
2014-Oct-28 16:33N 39°20' W 075°25'39 7.2
2014-Oct-28 11:09N 38°57' W 074°44'5 8.3
2014-Oct-28 10:33N 39°01' W 074°39'13 8.7
2014-Oct-28 09:04N 39°08' W 074°26'5 9.4
2014-Oct-28 08:33N 39°11' W 074°21'29 9.7
2014-Oct-28 05:32N 39°37' W 074°03'10 9.8
2014-Oct-28 04:33N 39°45' W 073°58'10 9.9
2014-Oct-28 03:34N 39°55' W 073°55'12 9.9
2014-Oct-28 02:22N 40°07' W 073°53'9 9.8
2014-Oct-28 01:29N 40°15' W 073°51'11 9.4
2014-Oct-28 00:18N 40°26' W 073°50'8 8.5
2014-Oct-27 23:21N 40°31' W 073°59'7 9.1
2014-Oct-27 22:33N 40°37' W 074°03'8 7.6
2014-Oct-27 21:33N 40°45' W 074°01'0 0.0
2014-Oct-27 20:33N 40°45' W 074°01'0 0.0
2014-Oct-27 19:33N 40°45' W 074°01'0 0.0
2014-Oct-27 18:33N 40°45' W 074°01'0 0.0
2014-Oct-27 17:33N 40°45' W 074°01'0 0.0
2014-Oct-27 16:33N 40°45' W 074°01'0 0.2
2014-Oct-27 15:33N 40°45' W 074°01'2 2.1
2014-Oct-27 14:33N 40°45' W 073°58'25 7.6
2014-Oct-27 11:11N 40°59' W 073°29'6 9.4
2014-Oct-27 10:33N 41°01' W 073°22'21 9.0
2014-Oct-27 08:17N 41°05' W 072°55'6 8.7
2014-Oct-27 07:33N 41°06' W 072°47'9 8.8
2014-Oct-27 06:33N 41°08' W 072°36'9 9.3
2014-Oct-27 05:33N 41°11' W 072°24'1010.2
2014-Oct-27 04:33N 41°14' W 072°11'1110.6
2014-Oct-27 03:33N 41°15' W 071°57'1110.7
2014-Oct-27 02:33N 41°18' W 071°44'10 9.8
2014-Oct-27 01:33N 41°19' W 071°31'9 8.7
2014-Oct-27 00:33N 41°26' W 071°24'4 0.3
2014-Oct-26 10:08N 41°29' W 071°20'1 1.2
2014-Oct-26 09:33N 41°29' W 071°20'9 9.5
2014-Oct-26 08:33N 41°38' W 071°16'6 5.8
2014-Oct-26 07:33N 41°33' W 071°13'9 9.2
2014-Oct-26 06:33N 41°24' W 071°11'6 6.4
2014-Oct-26 05:33N 41°26' W 071°03'20 2.0
2014-Oct-25 19:29N 41°27' W 070°36'0 0.0
2014-Oct-25 17:08N 41°27' W 070°36'4 0.8
2014-Oct-25 12:33N 41°29' W 070°40'8 8.1
2014-Oct-25 11:33N 41°28' W 070°51'10 9.9
2014-Oct-25 10:33N 41°36' W 070°43'10 9.5
2014-Oct-25 09:33N 41°45' W 070°37'  
2014-Oct-22 13:06N 42°33' W 070°40'3 0.1
2014-Oct-21 15:17N 42°36' W 070°40'  
Track history (hours):
 
Tides and Currents Weather Stations Pressure Air Temp Water Temp Dewpoint Dewpoint Depression Visibility Wind Speed Wind Dir Waves Ship Positions

American Glory

Owner: AMERICAN CRUISE LINES INC, DELMAR, DE. More information available from US FCC via Universal Licensing System and Coast Guard Vessel Documentation Center.

Last reported at 2014-Oct-30 20:08 UTC. Time now 2014-Nov-01 04:48 UTC.
Position N 39°11' W 076°26'.

Length 54 m; draft 2.1 m.

Type: Passenger vessel. MMSI: 366858820.

Date/timePositionNaut miles runAvg speedWind from/ knotsBaromVisibWave heightAir tempDewpointWater temp
2014-Oct-30 20:08N 39°11' W 076°26'5 9.3
2014-Oct-30 19:33N 39°14' W 076°32'5 4.7
2014-Oct-30 18:33N 39°17' W 076°36'0 0.3
2014-Oct-30 17:33N 39°17' W 076°37'0 0.0
2014-Oct-30 16:33N 39°17' W 076°37'0 0.0
2014-Oct-30 15:33N 39°17' W 076°37'0 0.0
2014-Oct-30 14:33N 39°17' W 076°37'0 0.0
2014-Oct-30 13:27N 39°17' W 076°37'0 0.0
2014-Oct-30 12:33N 39°17' W 076°37'0 0.0
2014-Oct-30 11:33N 39°17' W 076°37'0 0.0
2014-Oct-30 10:33N 39°17' W 076°37'0 0.4
2014-Oct-30 09:33N 39°17' W 076°36'7 7.2
2014-Oct-30 08:33N 39°12' W 076°30'8 7.9
2014-Oct-30 07:33N 39°09' W 076°20'9 7.7
2014-Oct-30 06:26N 39°16' W 076°14'29 7.4
2014-Oct-30 02:33N 39°33' W 075°43'8 8.2
2014-Oct-30 01:33N 39°34' W 075°33'10 9.9
2014-Oct-30 00:32N 39°44' W 075°30'1 0.0
2014-Oct-28 19:17N 39°45' W 075°30'811.0
2014-Oct-28 18:33N 39°38' W 075°34'1010.2
2014-Oct-28 17:33N 39°28' W 075°34'1110.7
2014-Oct-28 16:33N 39°20' W 075°25'39 7.2
2014-Oct-28 11:09N 38°57' W 074°44'5 8.3
2014-Oct-28 10:33N 39°01' W 074°39'13 8.7
2014-Oct-28 09:04N 39°08' W 074°26'5 9.4
2014-Oct-28 08:33N 39°11' W 074°21'29 9.7
2014-Oct-28 05:32N 39°37' W 074°03'10 9.8
2014-Oct-28 04:33N 39°45' W 073°58'10 9.9
2014-Oct-28 03:34N 39°55' W 073°55'12 9.9
2014-Oct-28 02:22N 40°07' W 073°53'9 9.8
2014-Oct-28 01:29N 40°15' W 073°51'11 9.4
2014-Oct-28 00:18N 40°26' W 073°50'8 8.5
2014-Oct-27 23:21N 40°31' W 073°59'7 9.1
2014-Oct-27 22:33N 40°37' W 074°03'8 7.6
2014-Oct-27 21:33N 40°45' W 074°01'0 0.0
2014-Oct-27 20:33N 40°45' W 074°01'0 0.0
2014-Oct-27 19:33N 40°45' W 074°01'0 0.0
2014-Oct-27 18:33N 40°45' W 074°01'0 0.0
2014-Oct-27 17:33N 40°45' W 074°01'0 0.0
2014-Oct-27 16:33N 40°45' W 074°01'0 0.2
2014-Oct-27 15:33N 40°45' W 074°01'2 2.1
2014-Oct-27 14:33N 40°45' W 073°58'25 7.6
2014-Oct-27 11:11N 40°59' W 073°29'6 9.4
2014-Oct-27 10:33N 41°01' W 073°22'21 9.0
2014-Oct-27 08:17N 41°05' W 072°55'6 8.7
2014-Oct-27 07:33N 41°06' W 072°47'9 8.8
2014-Oct-27 06:33N 41°08' W 072°36'9 9.3
2014-Oct-27 05:33N 41°11' W 072°24'1010.2
2014-Oct-27 04:33N 41°14' W 072°11'1110.6
2014-Oct-27 03:33N 41°15' W 071°57'1110.7
2014-Oct-27 02:33N 41°18' W 071°44'10 9.8
2014-Oct-27 01:33N 41°19' W 071°31'9 8.7
2014-Oct-27 00:33N 41°26' W 071°24'4 0.3
2014-Oct-26 10:08N 41°29' W 071°20'1 1.2
2014-Oct-26 09:33N 41°29' W 071°20'9 9.5
2014-Oct-26 08:33N 41°38' W 071°16'6 5.8
2014-Oct-26 07:33N 41°33' W 071°13'9 9.2
2014-Oct-26 06:33N 41°24' W 071°11'6 6.4
2014-Oct-26 05:33N 41°26' W 071°03'20 2.0
2014-Oct-25 19:29N 41°27' W 070°36'0 0.0
2014-Oct-25 17:08N 41°27' W 070°36'4 0.8
2014-Oct-25 12:33N 41°29' W 070°40'8 8.1
2014-Oct-25 11:33N 41°28' W 070°51'10 9.9
2014-Oct-25 10:33N 41°36' W 070°43'10 9.5
2014-Oct-25 09:33N 41°45' W 070°37'  
2014-Oct-22 13:06N 42°33' W 070°40'3 0.1
2014-Oct-21 15:17N 42°36' W 070°40'  

Dump ship's entire track history